sensor_id;sensor_type;location;lat;lon;timestamp;P1;durP1;ratioP1;P2;durP2;ratioP2
64313;SDS011;50650;48.180;11.524;2023-05-19T00:01:42;11.45;;;3.13;;
64313;SDS011;50650;48.180;11.524;2023-05-19T00:04:09;7.50;;;3.33;;
64313;SDS011;50650;48.180;11.524;2023-05-19T00:06:39;8.20;;;3.00;;
64313;SDS011;50650;48.180;11.524;2023-05-19T00:09:06;13.98;;;3.40;;
64313;SDS011;50650;48.180;11.524;2023-05-19T00:11:36;9.50;;;2.85;;
64313;SDS011;50650;48.180;11.524;2023-05-19T00:14:05;10.07;;;3.00;;
64313;SDS011;50650;48.180;11.524;2023-05-19T00:16:36;7.78;;;2.80;;
64313;SDS011;50650;48.180;11.524;2023-05-19T00:19:04;13.02;;;3.17;;
64313;SDS011;50650;48.180;11.524;2023-05-19T00:21:34;10.43;;;2.60;;
64313;SDS011;50650;48.180;11.524;2023-05-19T00:24:01;9.50;;;3.38;;
64313;SDS011;50650;48.180;11.524;2023-05-19T00:26:28;13.23;;;3.03;;
64313;SDS011;50650;48.180;11.524;2023-05-19T00:28:56;12.68;;;3.05;;
64313;SDS011;50650;48.180;11.524;2023-05-19T00:31:24;9.68;;;3.33;;
64313;SDS011;50650;48.180;11.524;2023-05-19T00:33:51;14.23;;;2.60;;
64313;SDS011;50650;48.180;11.524;2023-05-19T00:36:17;13.85;;;3.20;;
64313;SDS011;50650;48.180;11.524;2023-05-19T00:38:44;10.07;;;3.08;;
64313;SDS011;50650;48.180;11.524;2023-05-19T00:41:10;10.02;;;3.15;;
64313;SDS011;50650;48.180;11.524;2023-05-19T00:43:37;15.73;;;3.33;;
64313;SDS011;50650;48.180;11.524;2023-05-19T00:46:04;9.38;;;2.90;;
64313;SDS011;50650;48.180;11.524;2023-05-19T00:48:31;10.43;;;3.17;;
64313;SDS011;50650;48.180;11.524;2023-05-19T00:50:58;12.95;;;2.85;;
64313;SDS011;50650;48.180;11.524;2023-05-19T00:53:28;6.07;;;2.88;;
64313;SDS011;50650;48.180;11.524;2023-05-19T00:55:55;7.15;;;2.63;;
64313;SDS011;50650;48.180;11.524;2023-05-19T00:58:21;9.10;;;2.80;;
64313;SDS011;50650;48.180;11.524;2023-05-19T01:00:49;6.22;;;3.00;;
64313;SDS011;50650;48.180;11.524;2023-05-19T01:03:17;10.15;;;2.95;;
64313;SDS011;50650;48.180;11.524;2023-05-19T01:05:44;7.53;;;2.83;;
64313;SDS011;50650;48.180;11.524;2023-05-19T01:08:11;6.85;;;2.45;;
64313;SDS011;50650;48.180;11.524;2023-05-19T01:10:38;10.10;;;3.13;;
64313;SDS011;50650;48.180;11.524;2023-05-19T01:13:04;10.85;;;3.78;;
64313;SDS011;50650;48.180;11.524;2023-05-19T01:15:32;8.32;;;2.92;;
64313;SDS011;50650;48.180;11.524;2023-05-19T01:18:03;11.65;;;3.08;;
64313;SDS011;50650;48.180;11.524;2023-05-19T01:20:34;8.10;;;2.92;;
64313;SDS011;50650;48.180;11.524;2023-05-19T01:23:21;6.20;;;2.90;;
64313;SDS011;50650;48.180;11.524;2023-05-19T01:25:56;7.47;;;3.25;;
64313;SDS011;50650;48.180;11.524;2023-05-19T01:31:43;9.27;;;3.20;;
64313;SDS011;50650;48.180;11.524;2023-05-19T01:34:12;8.48;;;3.40;;
64313;SDS011;50650;48.180;11.524;2023-05-19T01:36:40;9.82;;;3.28;;
64313;SDS011;50650;48.180;11.524;2023-05-19T01:39:08;8.02;;;3.03;;
64313;SDS011;50650;48.180;11.524;2023-05-19T01:41:35;8.65;;;3.38;;
64313;SDS011;50650;48.180;11.524;2023-05-19T01:44:02;7.55;;;3.30;;
64313;SDS011;50650;48.180;11.524;2023-05-19T01:46:28;8.68;;;2.90;;
64313;SDS011;50650;48.180;11.524;2023-05-19T01:48:56;7.32;;;2.70;;
64313;SDS011;50650;48.180;11.524;2023-05-19T01:51:23;11.13;;;3.17;;
64313;SDS011;50650;48.180;11.524;2023-05-19T01:53:49;8.05;;;3.08;;
64313;SDS011;50650;48.180;11.524;2023-05-19T01:56:18;7.80;;;3.35;;
64313;SDS011;50650;48.180;11.524;2023-05-19T01:58:47;6.65;;;2.85;;
64313;SDS011;50650;48.180;11.524;2023-05-19T02:01:20;8.57;;;3.25;;
64313;SDS011;50650;48.180;11.524;2023-05-19T02:04:00;6.32;;;2.70;;
64313;SDS011;50650;48.180;11.524;2023-05-19T02:06:32;7.10;;;3.03;;
64313;SDS011;50650;48.180;11.524;2023-05-19T02:09:06;7.15;;;2.97;;
64313;SDS011;50650;48.180;11.524;2023-05-19T02:11:35;9.48;;;2.90;;
64313;SDS011;50650;48.180;11.524;2023-05-19T02:14:07;6.55;;;2.97;;
64313;SDS011;50650;48.180;11.524;2023-05-19T02:16:35;10.13;;;2.80;;
64313;SDS011;50650;48.180;11.524;2023-05-19T02:19:03;7.95;;;2.92;;
64313;SDS011;50650;48.180;11.524;2023-05-19T02:21:29;8.32;;;3.00;;
64313;SDS011;50650;48.180;11.524;2023-05-19T02:23:56;7.35;;;3.03;;
64313;SDS011;50650;48.180;11.524;2023-05-19T02:26:22;10.77;;;2.83;;
64313;SDS011;50650;48.180;11.524;2023-05-19T02:28:49;6.93;;;3.00;;
64313;SDS011;50650;48.180;11.524;2023-05-19T02:31:17;9.25;;;2.78;;
64313;SDS011;50650;48.180;11.524;2023-05-19T02:33:43;9.95;;;2.80;;
64313;SDS011;50650;48.180;11.524;2023-05-19T02:36:11;12.88;;;3.40;;
64313;SDS011;50650;48.180;11.524;2023-05-19T02:38:38;7.90;;;3.10;;
64313;SDS011;50650;48.180;11.524;2023-05-19T02:41:05;10.35;;;2.97;;
64313;SDS011;50650;48.180;11.524;2023-05-19T02:43:31;10.25;;;3.08;;
64313;SDS011;50650;48.180;11.524;2023-05-19T02:45:57;7.38;;;3.72;;
64313;SDS011;50650;48.180;11.524;2023-05-19T02:48:24;7.40;;;2.55;;
64313;SDS011;50650;48.180;11.524;2023-05-19T02:50:53;5.88;;;2.72;;
64313;SDS011;50650;48.180;11.524;2023-05-19T02:53:21;5.93;;;2.42;;
64313;SDS011;50650;48.180;11.524;2023-05-19T02:55:48;8.45;;;3.20;;
64313;SDS011;50650;48.180;11.524;2023-05-19T02:58:14;9.60;;;3.30;;
64313;SDS011;50650;48.180;11.524;2023-05-19T03:00:40;9.65;;;3.40;;
64313;SDS011;50650;48.180;11.524;2023-05-19T03:03:09;7.53;;;2.63;;
64313;SDS011;50650;48.180;11.524;2023-05-19T03:05:35;8.20;;;2.80;;
64313;SDS011;50650;48.180;11.524;2023-05-19T03:08:02;7.28;;;2.97;;
64313;SDS011;50650;48.180;11.524;2023-05-19T03:10:29;10.05;;;3.10;;
64313;SDS011;50650;48.180;11.524;2023-05-19T03:12:56;7.03;;;3.20;;
64313;SDS011;50650;48.180;11.524;2023-05-19T03:15:22;9.65;;;3.17;;
64313;SDS011;50650;48.180;11.524;2023-05-19T03:17:49;9.13;;;3.70;;
64313;SDS011;50650;48.180;11.524;2023-05-19T03:20:16;8.43;;;3.50;;
64313;SDS011;50650;48.180;11.524;2023-05-19T03:22:42;5.85;;;3.10;;
64313;SDS011;50650;48.180;11.524;2023-05-19T03:25:09;8.32;;;3.30;;
64313;SDS011;50650;48.180;11.524;2023-05-19T03:27:36;7.93;;;3.05;;
64313;SDS011;50650;48.180;11.524;2023-05-19T03:30:03;8.75;;;3.30;;
64313;SDS011;50650;48.180;11.524;2023-05-19T03:32:30;7.68;;;3.42;;
64313;SDS011;50650;48.180;11.524;2023-05-19T03:34:57;10.13;;;3.55;;
64313;SDS011;50650;48.180;11.524;2023-05-19T03:37:25;9.98;;;3.63;;
64313;SDS011;50650;48.180;11.524;2023-05-19T03:39:52;6.15;;;3.22;;
64313;SDS011;50650;48.180;11.524;2023-05-19T03:42:18;8.80;;;3.45;;
64313;SDS011;50650;48.180;11.524;2023-05-19T03:44:46;9.63;;;3.95;;
64313;SDS011;50650;48.180;11.524;2023-05-19T03:47:12;8.45;;;3.38;;
64313;SDS011;50650;48.180;11.524;2023-05-19T03:49:39;11.07;;;3.45;;
64313;SDS011;50650;48.180;11.524;2023-05-19T03:52:05;9.48;;;3.20;;
64313;SDS011;50650;48.180;11.524;2023-05-19T03:54:32;7.85;;;3.53;;
64313;SDS011;50650;48.180;11.524;2023-05-19T03:56:58;13.25;;;3.63;;
64313;SDS011;50650;48.180;11.524;2023-05-19T03:59:24;8.88;;;3.65;;
64313;SDS011;50650;48.180;11.524;2023-05-19T04:01:52;7.88;;;3.03;;
64313;SDS011;50650;48.180;11.524;2023-05-19T04:04:18;6.30;;;3.22;;
64313;SDS011;50650;48.180;11.524;2023-05-19T04:06:45;10.80;;;3.90;;
64313;SDS011;50650;48.180;11.524;2023-05-19T04:09:13;7.68;;;3.55;;
64313;SDS011;50650;48.180;11.524;2023-05-19T04:11:40;6.85;;;3.17;;
64313;SDS011;50650;48.180;11.524;2023-05-19T04:14:07;8.60;;;3.85;;
64313;SDS011;50650;48.180;11.524;2023-05-19T04:16:33;8.88;;;3.70;;
64313;SDS011;50650;48.180;11.524;2023-05-19T04:19:01;9.02;;;3.83;;
64313;SDS011;50650;48.180;11.524;2023-05-19T04:21:28;7.25;;;3.60;;
64313;SDS011;50650;48.180;11.524;2023-05-19T04:23:54;10.05;;;3.78;;
64313;SDS011;50650;48.180;11.524;2023-05-19T04:26:23;10.90;;;3.58;;
64313;SDS011;50650;48.180;11.524;2023-05-19T04:28:50;9.40;;;3.70;;
64313;SDS011;50650;48.180;11.524;2023-05-19T04:31:17;11.80;;;3.97;;
64313;SDS011;50650;48.180;11.524;2023-05-19T04:33:45;6.05;;;3.22;;
64313;SDS011;50650;48.180;11.524;2023-05-19T04:36:13;9.25;;;3.97;;
64313;SDS011;50650;48.180;11.524;2023-05-19T04:38:41;4.88;;;3.10;;
64313;SDS011;50650;48.180;11.524;2023-05-19T04:41:09;9.05;;;3.50;;
64313;SDS011;50650;48.180;11.524;2023-05-19T04:43:36;10.32;;;3.55;;
64313;SDS011;50650;48.180;11.524;2023-05-19T04:46:05;10.25;;;3.63;;
64313;SDS011;50650;48.180;11.524;2023-05-19T04:48:32;11.57;;;3.83;;
64313;SDS011;50650;48.180;11.524;2023-05-19T04:50:58;9.77;;;3.63;;
64313;SDS011;50650;48.180;11.524;2023-05-19T04:53:27;11.00;;;3.58;;
64313;SDS011;50650;48.180;11.524;2023-05-19T04:55:53;9.90;;;3.45;;
64313;SDS011;50650;48.180;11.524;2023-05-19T04:58:20;6.55;;;3.35;;
64313;SDS011;50650;48.180;11.524;2023-05-19T05:00:50;10.73;;;3.88;;
64313;SDS011;50650;48.180;11.524;2023-05-19T05:03:16;10.82;;;4.15;;
64313;SDS011;50650;48.180;11.524;2023-05-19T05:05:43;14.55;;;4.20;;
64313;SDS011;50650;48.180;11.524;2023-05-19T05:08:09;7.93;;;3.60;;
64313;SDS011;50650;48.180;11.524;2023-05-19T05:10:37;7.80;;;3.63;;
64313;SDS011;50650;48.180;11.524;2023-05-19T05:13:04;9.85;;;3.50;;
64313;SDS011;50650;48.180;11.524;2023-05-19T05:15:31;9.35;;;3.97;;
64313;SDS011;50650;48.180;11.524;2023-05-19T05:18:03;8.68;;;3.40;;
64313;SDS011;50650;48.180;11.524;2023-05-19T05:20:30;10.63;;;3.67;;
64313;SDS011;50650;48.180;11.524;2023-05-19T05:22:57;8.80;;;3.08;;
64313;SDS011;50650;48.180;11.524;2023-05-19T05:25:25;10.88;;;3.40;;
64313;SDS011;50650;48.180;11.524;2023-05-19T05:27:53;11.80;;;3.90;;
64313;SDS011;50650;48.180;11.524;2023-05-19T05:30:22;10.20;;;3.47;;
64313;SDS011;50650;48.180;11.524;2023-05-19T05:32:49;15.43;;;3.90;;
64313;SDS011;50650;48.180;11.524;2023-05-19T05:35:15;9.77;;;3.50;;
64313;SDS011;50650;48.180;11.524;2023-05-19T05:37:42;11.02;;;3.80;;
64313;SDS011;50650;48.180;11.524;2023-05-19T05:40:08;7.03;;;3.20;;
64313;SDS011;50650;48.180;11.524;2023-05-19T05:42:35;12.27;;;3.63;;
64313;SDS011;50650;48.180;11.524;2023-05-19T05:45:04;9.23;;;3.85;;
64313;SDS011;50650;48.180;11.524;2023-05-19T05:47:31;10.00;;;3.72;;
64313;SDS011;50650;48.180;11.524;2023-05-19T05:49:58;9.23;;;3.35;;
64313;SDS011;50650;48.180;11.524;2023-05-19T05:52:25;7.93;;;3.45;;
64313;SDS011;50650;48.180;11.524;2023-05-19T05:54:55;11.98;;;3.60;;
64313;SDS011;50650;48.180;11.524;2023-05-19T05:57:22;9.45;;;3.17;;
64313;SDS011;50650;48.180;11.524;2023-05-19T05:59:48;10.57;;;3.80;;
64313;SDS011;50650;48.180;11.524;2023-05-19T06:02:16;11.15;;;4.00;;
64313;SDS011;50650;48.180;11.524;2023-05-19T06:04:43;8.98;;;3.45;;
64313;SDS011;50650;48.180;11.524;2023-05-19T06:07:09;11.82;;;4.43;;
64313;SDS011;50650;48.180;11.524;2023-05-19T06:09:35;13.48;;;3.13;;
64313;SDS011;50650;48.180;11.524;2023-05-19T06:12:02;11.02;;;3.45;;
64313;SDS011;50650;48.180;11.524;2023-05-19T06:14:29;8.90;;;3.30;;
64313;SDS011;50650;48.180;11.524;2023-05-19T06:16:55;10.38;;;3.58;;
64313;SDS011;50650;48.180;11.524;2023-05-19T06:19:23;8.07;;;3.38;;
64313;SDS011;50650;48.180;11.524;2023-05-19T06:21:50;9.77;;;3.85;;
64313;SDS011;50650;48.180;11.524;2023-05-19T06:24:16;7.93;;;3.85;;
64313;SDS011;50650;48.180;11.524;2023-05-19T06:26:43;5.82;;;3.15;;
64313;SDS011;50650;48.180;11.524;2023-05-19T06:29:09;7.18;;;3.05;;
64313;SDS011;50650;48.180;11.524;2023-05-19T06:31:36;11.18;;;3.83;;
64313;SDS011;50650;48.180;11.524;2023-05-19T06:34:02;7.13;;;3.45;;
64313;SDS011;50650;48.180;11.524;2023-05-19T06:36:30;9.60;;;3.13;;
64313;SDS011;50650;48.180;11.524;2023-05-19T06:38:57;10.65;;;3.88;;
64313;SDS011;50650;48.180;11.524;2023-05-19T06:41:23;7.68;;;3.35;;
64313;SDS011;50650;48.180;11.524;2023-05-19T06:43:50;10.15;;;3.58;;
64313;SDS011;50650;48.180;11.524;2023-05-19T06:46:16;10.00;;;3.47;;
64313;SDS011;50650;48.180;11.524;2023-05-19T06:48:42;7.95;;;3.40;;
64313;SDS011;50650;48.180;11.524;2023-05-19T06:51:09;5.72;;;2.85;;
64313;SDS011;50650;48.180;11.524;2023-05-19T06:53:37;11.18;;;3.20;;
64313;SDS011;50650;48.180;11.524;2023-05-19T06:56:03;5.88;;;2.83;;
64313;SDS011;50650;48.180;11.524;2023-05-19T06:58:30;10.77;;;4.00;;
64313;SDS011;50650;48.180;11.524;2023-05-19T07:00:57;6.63;;;3.35;;
64313;SDS011;50650;48.180;11.524;2023-05-19T07:03:23;8.88;;;3.13;;
64313;SDS011;50650;48.180;11.524;2023-05-19T07:05:50;8.10;;;3.55;;
64313;SDS011;50650;48.180;11.524;2023-05-19T07:08:16;7.88;;;3.40;;
64313;SDS011;50650;48.180;11.524;2023-05-19T07:10:44;6.32;;;3.38;;
64313;SDS011;50650;48.180;11.524;2023-05-19T07:13:10;6.35;;;3.25;;
64313;SDS011;50650;48.180;11.524;2023-05-19T07:15:37;7.88;;;3.08;;
64313;SDS011;50650;48.180;11.524;2023-05-19T07:18:03;6.32;;;3.20;;
64313;SDS011;50650;48.180;11.524;2023-05-19T07:20:30;10.70;;;3.33;;
64313;SDS011;50650;48.180;11.524;2023-05-19T07:22:56;5.35;;;3.30;;
64313;SDS011;50650;48.180;11.524;2023-05-19T07:25:23;6.53;;;3.10;;
64313;SDS011;50650;48.180;11.524;2023-05-19T07:27:52;6.85;;;3.30;;
64313;SDS011;50650;48.180;11.524;2023-05-19T07:30:18;6.70;;;3.15;;
64313;SDS011;50650;48.180;11.524;2023-05-19T07:32:45;7.00;;;3.38;;
64313;SDS011;50650;48.180;11.524;2023-05-19T07:35:11;6.15;;;3.40;;
64313;SDS011;50650;48.180;11.524;2023-05-19T07:37:37;6.25;;;3.50;;
64313;SDS011;50650;48.180;11.524;2023-05-19T07:40:05;11.13;;;3.60;;
64313;SDS011;50650;48.180;11.524;2023-05-19T07:42:32;7.28;;;3.35;;
64313;SDS011;50650;48.180;11.524;2023-05-19T07:45:00;4.20;;;3.17;;
64313;SDS011;50650;48.180;11.524;2023-05-19T07:47:27;9.57;;;3.67;;
64313;SDS011;50650;48.180;11.524;2023-05-19T07:49:54;7.13;;;3.45;;
64313;SDS011;50650;48.180;11.524;2023-05-19T07:52:21;11.38;;;3.83;;
64313;SDS011;50650;48.180;11.524;2023-05-19T07:54:47;9.25;;;3.47;;
64313;SDS011;50650;48.180;11.524;2023-05-19T07:57:13;8.82;;;3.75;;
64313;SDS011;50650;48.180;11.524;2023-05-19T07:59:40;9.98;;;3.90;;
64313;SDS011;50650;48.180;11.524;2023-05-19T08:02:08;8.32;;;3.47;;
64313;SDS011;50650;48.180;11.524;2023-05-19T08:04:34;11.73;;;3.65;;
64313;SDS011;50650;48.180;11.524;2023-05-19T08:07:01;6.10;;;3.40;;
64313;SDS011;50650;48.180;11.524;2023-05-19T08:09:27;4.82;;;3.30;;
64313;SDS011;50650;48.180;11.524;2023-05-19T08:11:54;6.30;;;3.30;;
64313;SDS011;50650;48.180;11.524;2023-05-19T08:14:20;6.03;;;3.20;;
64313;SDS011;50650;48.180;11.524;2023-05-19T08:16:47;7.68;;;3.45;;
64313;SDS011;50650;48.180;11.524;2023-05-19T08:19:15;7.57;;;3.72;;
64313;SDS011;50650;48.180;11.524;2023-05-19T08:21:41;9.15;;;3.70;;
64313;SDS011;50650;48.180;11.524;2023-05-19T08:24:08;8.25;;;3.67;;
64313;SDS011;50650;48.180;11.524;2023-05-19T08:26:35;8.30;;;3.72;;
64313;SDS011;50650;48.180;11.524;2023-05-19T08:29:01;14.32;;;3.38;;
64313;SDS011;50650;48.180;11.524;2023-05-19T08:31:28;9.95;;;3.78;;
64313;SDS011;50650;48.180;11.524;2023-05-19T08:33:54;5.38;;;3.42;;
64313;SDS011;50650;48.180;11.524;2023-05-19T08:36:22;5.20;;;3.20;;
64313;SDS011;50650;48.180;11.524;2023-05-19T08:38:48;9.57;;;3.83;;
64313;SDS011;50650;48.180;11.524;2023-05-19T08:41:15;6.53;;;4.00;;
64313;SDS011;50650;48.180;11.524;2023-05-19T08:43:42;5.90;;;3.60;;
64313;SDS011;50650;48.180;11.524;2023-05-19T08:46:09;9.20;;;3.55;;
64313;SDS011;50650;48.180;11.524;2023-05-19T08:48:41;9.18;;;3.58;;
64313;SDS011;50650;48.180;11.524;2023-05-19T08:51:12;7.10;;;3.40;;
64313;SDS011;50650;48.180;11.524;2023-05-19T08:53:46;5.65;;;3.10;;
64313;SDS011;50650;48.180;11.524;2023-05-19T08:56:15;6.47;;;3.20;;
64313;SDS011;50650;48.180;11.524;2023-05-19T08:58:43;7.20;;;3.38;;
64313;SDS011;50650;48.180;11.524;2023-05-19T09:01:10;7.95;;;3.58;;
64313;SDS011;50650;48.180;11.524;2023-05-19T09:03:39;5.45;;;3.28;;
64313;SDS011;50650;48.180;11.524;2023-05-19T09:06:06;7.68;;;3.40;;
64313;SDS011;50650;48.180;11.524;2023-05-19T09:08:33;8.50;;;3.20;;
64313;SDS011;50650;48.180;11.524;2023-05-19T09:11:01;6.93;;;3.30;;
64313;SDS011;50650;48.180;11.524;2023-05-19T09:13:27;8.10;;;3.40;;
64313;SDS011;50650;48.180;11.524;2023-05-19T09:15:54;7.35;;;3.30;;
64313;SDS011;50650;48.180;11.524;2023-05-19T09:18:22;4.93;;;3.30;;
64313;SDS011;50650;48.180;11.524;2023-05-19T09:20:49;7.22;;;3.63;;
64313;SDS011;50650;48.180;11.524;2023-05-19T09:23:16;7.20;;;3.42;;
64313;SDS011;50650;48.180;11.524;2023-05-19T09:25:48;7.30;;;3.85;;
64313;SDS011;50650;48.180;11.524;2023-05-19T09:28:22;5.20;;;3.55;;
64313;SDS011;50650;48.180;11.524;2023-05-19T09:30:57;8.73;;;3.80;;
64313;SDS011;50650;48.180;11.524;2023-05-19T09:33:26;4.90;;;3.45;;
64313;SDS011;50650;48.180;11.524;2023-05-19T09:35:53;8.52;;;4.22;;
64313;SDS011;50650;48.180;11.524;2023-05-19T09:38:20;5.07;;;3.33;;
64313;SDS011;50650;48.180;11.524;2023-05-19T09:40:47;5.30;;;3.65;;
64313;SDS011;50650;48.180;11.524;2023-05-19T09:43:13;4.68;;;3.28;;
64313;SDS011;50650;48.180;11.524;2023-05-19T09:45:41;5.55;;;3.65;;
64313;SDS011;50650;48.180;11.524;2023-05-19T09:48:08;6.50;;;3.40;;
64313;SDS011;50650;48.180;11.524;2023-05-19T09:50:34;5.13;;;3.58;;
64313;SDS011;50650;48.180;11.524;2023-05-19T09:53:02;5.70;;;3.78;;
64313;SDS011;50650;48.180;11.524;2023-05-19T09:55:29;7.72;;;4.15;;
64313;SDS011;50650;48.180;11.524;2023-05-19T09:57:56;10.18;;;3.60;;
64313;SDS011;50650;48.180;11.524;2023-05-19T10:00:23;4.95;;;3.55;;
64313;SDS011;50650;48.180;11.524;2023-05-19T10:02:53;7.65;;;3.75;;
64313;SDS011;50650;48.180;11.524;2023-05-19T10:05:21;8.65;;;4.40;;
64313;SDS011;50650;48.180;11.524;2023-05-19T10:07:49;7.82;;;3.70;;
64313;SDS011;50650;48.180;11.524;2023-05-19T10:10:16;8.55;;;3.90;;
64313;SDS011;50650;48.180;11.524;2023-05-19T10:12:45;6.53;;;3.75;;
64313;SDS011;50650;48.180;11.524;2023-05-19T10:15:13;6.25;;;3.70;;
64313;SDS011;50650;48.180;11.524;2023-05-19T10:17:42;5.68;;;3.97;;
64313;SDS011;50650;48.180;11.524;2023-05-19T10:20:11;7.13;;;4.00;;
64313;SDS011;50650;48.180;11.524;2023-05-19T10:22:38;7.65;;;4.03;;
64313;SDS011;50650;48.180;11.524;2023-05-19T10:25:06;8.35;;;4.05;;
64313;SDS011;50650;48.180;11.524;2023-05-19T10:27:34;10.23;;;5.65;;
64313;SDS011;50650;48.180;11.524;2023-05-19T10:30:04;6.22;;;4.15;;
64313;SDS011;50650;48.180;11.524;2023-05-19T10:32:33;7.45;;;3.80;;
64313;SDS011;50650;48.180;11.524;2023-05-19T10:37:53;8.13;;;4.35;;
64313;SDS011;50650;48.180;11.524;2023-05-19T10:40:25;16.35;;;6.72;;
64313;SDS011;50650;48.180;11.524;2023-05-19T10:42:56;9.50;;;4.65;;
64313;SDS011;50650;48.180;11.524;2023-05-19T10:45:32;8.35;;;4.22;;
64313;SDS011;50650;48.180;11.524;2023-05-19T10:48:01;7.80;;;4.80;;
64313;SDS011;50650;48.180;11.524;2023-05-19T10:50:33;8.18;;;4.55;;
64313;SDS011;50650;48.180;11.524;2023-05-19T10:53:01;6.97;;;4.40;;
64313;SDS011;50650;48.180;11.524;2023-05-19T10:58:12;6.22;;;3.75;;
64313;SDS011;50650;48.180;11.524;2023-05-19T11:00:39;11.95;;;4.53;;
64313;SDS011;50650;48.180;11.524;2023-05-19T11:03:12;8.15;;;4.40;;
64313;SDS011;50650;48.180;11.524;2023-05-19T11:05:40;9.73;;;4.70;;
64313;SDS011;50650;48.180;11.524;2023-05-19T11:08:09;8.85;;;4.43;;
64313;SDS011;50650;48.180;11.524;2023-05-19T11:10:36;9.52;;;4.00;;
64313;SDS011;50650;48.180;11.524;2023-05-19T11:13:03;16.33;;;4.80;;
64313;SDS011;50650;48.180;11.524;2023-05-19T11:15:33;13.82;;;4.72;;
64313;SDS011;50650;48.180;11.524;2023-05-19T11:18:00;9.52;;;5.20;;
64313;SDS011;50650;48.180;11.524;2023-05-19T11:20:27;7.85;;;4.80;;
64313;SDS011;50650;48.180;11.524;2023-05-19T11:23:04;13.77;;;4.88;;
64313;SDS011;50650;48.180;11.524;2023-05-19T11:25:40;7.75;;;5.30;;
64313;SDS011;50650;48.180;11.524;2023-05-19T11:28:09;6.35;;;4.70;;
64313;SDS011;50650;48.180;11.524;2023-05-19T11:30:37;9.95;;;4.80;;
64313;SDS011;50650;48.180;11.524;2023-05-19T11:33:03;9.35;;;4.60;;
64313;SDS011;50650;48.180;11.524;2023-05-19T11:35:31;6.82;;;4.90;;
64313;SDS011;50650;48.180;11.524;2023-05-19T11:37:58;10.45;;;4.90;;
64313;SDS011;50650;48.180;11.524;2023-05-19T11:40:26;9.02;;;5.00;;
64313;SDS011;50650;48.180;11.524;2023-05-19T11:42:53;7.82;;;4.38;;
64313;SDS011;50650;48.180;11.524;2023-05-19T11:45:23;6.97;;;4.78;;
64313;SDS011;50650;48.180;11.524;2023-05-19T11:47:49;7.22;;;4.60;;
64313;SDS011;50650;48.180;11.524;2023-05-19T11:50:16;8.07;;;5.07;;
64313;SDS011;50650;48.180;11.524;2023-05-19T11:52:43;9.50;;;5.10;;
64313;SDS011;50650;48.180;11.524;2023-05-19T11:55:13;12.63;;;5.13;;
64313;SDS011;50650;48.180;11.524;2023-05-19T11:57:42;7.20;;;4.97;;
64313;SDS011;50650;48.180;11.524;2023-05-19T12:00:16;8.65;;;5.15;;
64313;SDS011;50650;48.180;11.524;2023-05-19T12:02:42;14.07;;;5.00;;
64313;SDS011;50650;48.180;11.524;2023-05-19T12:05:16;12.55;;;6.85;;
64313;SDS011;50650;48.180;11.524;2023-05-19T12:07:43;16.10;;;10.40;;
64313;SDS011;50650;48.180;11.524;2023-05-19T12:10:11;8.70;;;5.68;;
64313;SDS011;50650;48.180;11.524;2023-05-19T12:12:37;6.35;;;4.82;;
64313;SDS011;50650;48.180;11.524;2023-05-19T12:15:07;7.78;;;5.70;;
64313;SDS011;50650;48.180;11.524;2023-05-19T12:17:34;9.15;;;5.68;;
64313;SDS011;50650;48.180;11.524;2023-05-19T12:20:01;6.90;;;5.47;;
64313;SDS011;50650;48.180;11.524;2023-05-19T12:22:28;9.20;;;5.60;;
64313;SDS011;50650;48.180;11.524;2023-05-19T12:24:55;8.40;;;5.13;;
64313;SDS011;50650;48.180;11.524;2023-05-19T12:27:22;8.00;;;5.82;;
64313;SDS011;50650;48.180;11.524;2023-05-19T12:29:50;9.35;;;5.47;;
64313;SDS011;50650;48.180;11.524;2023-05-19T12:32:18;8.02;;;5.53;;
64313;SDS011;50650;48.180;11.524;2023-05-19T12:34:48;8.18;;;5.10;;
64313;SDS011;50650;48.180;11.524;2023-05-19T12:37:14;10.77;;;5.38;;
64313;SDS011;50650;48.180;11.524;2023-05-19T12:39:41;8.50;;;5.13;;
64313;SDS011;50650;48.180;11.524;2023-05-19T12:42:09;8.73;;;5.18;;
64313;SDS011;50650;48.180;11.524;2023-05-19T12:44:36;8.32;;;5.25;;
64313;SDS011;50650;48.180;11.524;2023-05-19T12:47:03;9.10;;;5.28;;
64313;SDS011;50650;48.180;11.524;2023-05-19T12:49:32;8.38;;;5.28;;
64313;SDS011;50650;48.180;11.524;2023-05-19T12:51:59;10.32;;;5.70;;
64313;SDS011;50650;48.180;11.524;2023-05-19T12:54:26;9.48;;;5.47;;
64313;SDS011;50650;48.180;11.524;2023-05-19T12:56:56;10.27;;;5.47;;
64313;SDS011;50650;48.180;11.524;2023-05-19T12:59:22;11.27;;;5.53;;
64313;SDS011;50650;48.180;11.524;2023-05-19T13:01:55;11.27;;;5.93;;
64313;SDS011;50650;48.180;11.524;2023-05-19T13:04:22;9.65;;;5.68;;
64313;SDS011;50650;48.180;11.524;2023-05-19T13:06:50;10.32;;;5.93;;
64313;SDS011;50650;48.180;11.524;2023-05-19T13:09:17;8.25;;;5.57;;
64313;SDS011;50650;48.180;11.524;2023-05-19T13:11:44;9.52;;;6.18;;
64313;SDS011;50650;48.180;11.524;2023-05-19T13:14:14;8.45;;;5.75;;
64313;SDS011;50650;48.180;11.524;2023-05-19T13:16:42;7.47;;;5.22;;
64313;SDS011;50650;48.180;11.524;2023-05-19T13:19:10;9.18;;;5.65;;
64313;SDS011;50650;48.180;11.524;2023-05-19T13:21:37;7.63;;;5.32;;
64313;SDS011;50650;48.180;11.524;2023-05-19T13:24:05;10.70;;;6.55;;
64313;SDS011;50650;48.180;11.524;2023-05-19T13:26:32;12.13;;;5.40;;
64313;SDS011;50650;48.180;11.524;2023-05-19T13:28:59;8.10;;;5.57;;
64313;SDS011;50650;48.180;11.524;2023-05-19T13:31:26;9.15;;;5.35;;
64313;SDS011;50650;48.180;11.524;2023-05-19T13:33:52;7.28;;;4.80;;
64313;SDS011;50650;48.180;11.524;2023-05-19T13:36:19;7.70;;;4.60;;
64313;SDS011;50650;48.180;11.524;2023-05-19T13:38:45;8.93;;;4.90;;
64313;SDS011;50650;48.180;11.524;2023-05-19T13:41:13;7.50;;;4.75;;
64313;SDS011;50650;48.180;11.524;2023-05-19T13:43:39;9.88;;;5.60;;
64313;SDS011;50650;48.180;11.524;2023-05-19T13:46:05;22.38;;;13.52;;
64313;SDS011;50650;48.180;11.524;2023-05-19T13:48:33;8.65;;;5.57;;
64313;SDS011;50650;48.180;11.524;2023-05-19T13:51:00;7.57;;;5.13;;
64313;SDS011;50650;48.180;11.524;2023-05-19T13:53:26;7.75;;;4.72;;
64313;SDS011;50650;48.180;11.524;2023-05-19T13:55:55;13.30;;;5.40;;
64313;SDS011;50650;48.180;11.524;2023-05-19T13:58:22;10.40;;;5.30;;
64313;SDS011;50650;48.180;11.524;2023-05-19T14:00:49;6.82;;;5.30;;
64313;SDS011;50650;48.180;11.524;2023-05-19T14:03:18;8.48;;;5.70;;
64313;SDS011;50650;48.180;11.524;2023-05-19T14:05:46;6.68;;;4.80;;
64313;SDS011;50650;48.180;11.524;2023-05-19T14:08:12;6.88;;;5.10;;
64313;SDS011;50650;48.180;11.524;2023-05-19T14:10:39;10.60;;;5.72;;
64313;SDS011;50650;48.180;11.524;2023-05-19T14:13:06;12.57;;;5.22;;
64313;SDS011;50650;48.180;11.524;2023-05-19T14:15:35;6.65;;;5.13;;
64313;SDS011;50650;48.180;11.524;2023-05-19T14:18:02;7.85;;;5.47;;
64313;SDS011;50650;48.180;11.524;2023-05-19T14:20:28;8.15;;;5.13;;
64313;SDS011;50650;48.180;11.524;2023-05-19T14:22:55;10.82;;;4.50;;
64313;SDS011;50650;48.180;11.524;2023-05-19T14:25:22;8.57;;;4.43;;
64313;SDS011;50650;48.180;11.524;2023-05-19T14:27:48;7.78;;;5.13;;
64313;SDS011;50650;48.180;11.524;2023-05-19T14:30:15;12.38;;;5.60;;
64313;SDS011;50650;48.180;11.524;2023-05-19T14:32:42;9.10;;;5.80;;
64313;SDS011;50650;48.180;11.524;2023-05-19T14:35:09;7.30;;;4.95;;
64313;SDS011;50650;48.180;11.524;2023-05-19T14:37:36;8.60;;;5.03;;
64313;SDS011;50650;48.180;11.524;2023-05-19T14:40:02;6.47;;;4.85;;
64313;SDS011;50650;48.180;11.524;2023-05-19T14:42:29;6.45;;;4.75;;